createdAt,value
2023-01-08T00:01:29.789Z,5.80
2023-01-08T00:03:57.603Z,3.45
2023-01-08T00:06:26.187Z,3.47
2023-01-08T00:08:54.017Z,3.38
2023-01-08T00:11:22.170Z,5.25
2023-01-08T00:13:51.521Z,4.07
2023-01-08T00:16:20.775Z,4.50
2023-01-08T00:18:49.049Z,3.92
2023-01-08T00:21:16.977Z,4.10
2023-01-08T00:23:50.368Z,4.45
2023-01-08T00:26:18.252Z,4.70
2023-01-08T00:28:47.311Z,4.10
2023-01-08T00:31:16.546Z,4.55
2023-01-08T00:33:44.472Z,4.13
2023-01-08T00:36:14.905Z,3.47
2023-01-08T00:38:43.477Z,5.22
2023-01-08T00:41:11.923Z,4.75
2023-01-08T00:43:39.960Z,4.85
2023-01-08T00:46:08.608Z,5.45
2023-01-08T00:48:38.840Z,5.53
2023-01-08T00:51:08.350Z,4.25
2023-01-08T00:53:37.893Z,3.75
2023-01-08T00:56:09.137Z,7.40
2023-01-08T00:58:37.177Z,3.97
2023-01-08T01:01:10.787Z,4.40
2023-01-08T01:03:40.386Z,3.33
2023-01-08T01:06:09.268Z,4.20
2023-01-08T01:09:01.953Z,3.67
2023-01-08T01:11:30.091Z,3.60
2023-01-08T01:13:58.499Z,3.53
2023-01-08T01:16:26.630Z,7.38
2023-01-08T01:18:57.566Z,4.07
2023-01-08T01:21:28.542Z,3.65
2023-01-08T01:23:57.446Z,4.25
2023-01-08T01:26:26.471Z,4.63
2023-01-08T01:28:57.373Z,3.70
2023-01-08T01:31:26.620Z,3.80
2023-01-08T01:33:55.914Z,2.95
2023-01-08T01:36:25.046Z,3.25
2023-01-08T01:38:54.953Z,5.43
2023-01-08T01:41:27.634Z,3.83
2023-01-08T01:46:36.293Z,5.05
2023-01-08T01:49:10.193Z,3.92
2023-01-08T01:51:39.831Z,2.95
2023-01-08T01:54:10.962Z,5.85
2023-01-08T01:56:39.121Z,6.10
2023-01-08T01:59:07.276Z,6.03
2023-01-08T02:01:36.077Z,4.13
2023-01-08T02:04:06.802Z,4.50
2023-01-08T02:06:38.605Z,3.70
2023-01-08T02:09:15.493Z,2.70
2023-01-08T02:12:13.565Z,4.80
2023-01-08T02:14:48.567Z,4.20
2023-01-08T02:17:22.121Z,3.47
2023-01-08T02:19:58.413Z,7.40
2023-01-08T02:22:43.356Z,3.63
2023-01-08T02:25:17.350Z,5.10
2023-01-08T02:27:52.031Z,4.18
2023-01-08T02:30:20.578Z,3.90
2023-01-08T02:32:48.378Z,4.82
2023-01-08T02:35:19.293Z,4.50
2023-01-08T02:37:47.312Z,5.10
2023-01-08T02:40:31.697Z,5.03
2023-01-08T02:43:07.559Z,5.03
2023-01-08T02:45:44.833Z,3.42
2023-01-08T02:48:16.153Z,5.38
2023-01-08T02:50:48.177Z,5.07
2023-01-08T02:53:20.358Z,3.95
2023-01-08T02:55:52.701Z,4.88
2023-01-08T02:58:24.477Z,3.28
2023-01-08T03:00:53.551Z,5.83
2023-01-08T03:03:25.333Z,5.28
2023-01-08T03:05:56.701Z,5.00
2023-01-08T03:08:25.261Z,2.97
2023-01-08T03:10:57.965Z,3.88
2023-01-08T03:13:32.588Z,4.95
2023-01-08T03:16:05.428Z,6.00
2023-01-08T03:18:38.967Z,2.83
2023-01-08T03:21:07.911Z,5.15
2023-01-08T03:23:38.803Z,3.22
2023-01-08T03:26:08.099Z,4.65
2023-01-08T03:28:42.826Z,3.55
2023-01-08T03:31:12.608Z,5.03
2023-01-08T03:33:41.512Z,4.28
2023-01-08T03:36:13.218Z,5.20
2023-01-08T03:38:46.327Z,4.43
2023-01-08T03:41:19.521Z,4.07
2023-01-08T03:43:49.122Z,4.10
2023-01-08T03:46:21.712Z,3.25
2023-01-08T03:48:54.310Z,3.25
2023-01-08T03:51:22.345Z,3.95
2023-01-08T03:53:51.855Z,4.43
2023-01-08T03:56:20.898Z,3.55
2023-01-08T03:58:50.139Z,4.22
2023-01-08T04:01:18.322Z,3.63
2023-01-08T04:03:46.193Z,4.70
2023-01-08T04:06:14.055Z,4.88
2023-01-08T04:08:45.661Z,5.10
2023-01-08T04:11:13.577Z,3.90
2023-01-08T04:16:59.315Z,5.07
2023-01-08T04:19:27.777Z,5.35
2023-01-08T04:21:55.512Z,3.97
2023-01-08T04:24:24.298Z,3.80
2023-01-08T04:26:52.055Z,4.30
2023-01-08T04:29:20.070Z,3.45
2023-01-08T04:31:47.837Z,4.10
2023-01-08T04:34:17.040Z,3.55
2023-01-08T04:36:44.782Z,4.15
2023-01-08T04:39:13.042Z,8.85
2023-01-08T04:41:40.922Z,5.38
2023-01-08T04:44:10.323Z,5.53
2023-01-08T04:46:38.180Z,4.00
2023-01-08T04:49:06.033Z,5.07
2023-01-08T04:51:35.275Z,3.60
2023-01-08T04:54:03.040Z,5.30
2023-01-08T04:56:31.588Z,8.43
2023-01-08T04:58:59.397Z,4.75
2023-01-08T05:01:28.973Z,4.40
2023-01-08T05:03:59.603Z,7.40
2023-01-08T05:06:29.279Z,5.38
2023-01-08T05:08:58.994Z,3.38
2023-01-08T05:11:27.222Z,5.45
2023-01-08T05:13:56.478Z,4.82
2023-01-08T05:16:24.596Z,4.25
2023-01-08T05:18:52.387Z,4.30
2023-01-08T05:21:20.234Z,7.53
2023-01-08T05:23:49.036Z,3.45
2023-01-08T05:26:19.277Z,4.70
2023-01-08T05:28:47.365Z,6.22
2023-01-08T05:31:15.947Z,5.35
2023-01-08T05:33:43.812Z,5.60
2023-01-08T05:36:13.384Z,5.03
2023-01-08T05:38:41.633Z,4.18
2023-01-08T05:41:11.089Z,4.22
2023-01-08T05:43:40.231Z,3.63
2023-01-08T05:46:08.179Z,4.57
2023-01-08T05:48:37.441Z,5.22
2023-01-08T05:51:05.997Z,5.90
2023-01-08T05:53:34.312Z,7.60
2023-01-08T05:56:03.308Z,4.25
2023-01-08T05:58:31.281Z,6.03
2023-01-08T06:01:05.228Z,5.20
2023-01-08T06:03:33.092Z,5.22
2023-01-08T06:06:01.305Z,7.78
2023-01-08T06:08:30.092Z,6.20
2023-01-08T06:11:00.730Z,5.55
2023-01-08T06:13:28.857Z,5.45
2023-01-08T06:15:59.344Z,7.95
2023-01-08T06:18:28.805Z,7.00
2023-01-08T06:20:57.116Z,6.30
2023-01-08T06:23:25.268Z,6.65
2023-01-08T06:25:54.710Z,5.63
2023-01-08T06:28:23.301Z,4.95
2023-01-08T06:30:51.411Z,6.32
2023-01-08T06:33:21.361Z,6.00
2023-01-08T06:35:51.132Z,5.13
2023-01-08T06:38:19.320Z,5.07
2023-01-08T06:40:48.784Z,6.03
2023-01-08T06:43:17.693Z,5.47
2023-01-08T06:45:45.661Z,5.45
2023-01-08T06:48:13.450Z,7.85
2023-01-08T06:50:41.367Z,7.60
2023-01-08T06:53:10.539Z,5.28
2023-01-08T06:55:38.644Z,5.03
2023-01-08T06:58:06.467Z,6.50
2023-01-08T07:00:34.498Z,5.72
2023-01-08T07:03:02.505Z,8.70
2023-01-08T07:05:31.544Z,10.85
2023-01-08T07:07:59.526Z,16.65
2023-01-08T07:10:31.214Z,10.02
2023-01-08T07:12:59.658Z,8.83
2023-01-08T07:15:27.410Z,10.68
2023-01-08T07:17:55.302Z,5.22
2023-01-08T07:20:23.077Z,4.97
2023-01-08T07:22:51.057Z,7.53
2023-01-08T07:25:18.806Z,7.60
2023-01-08T07:27:50.348Z,7.90
2023-01-08T07:30:43.235Z,6.45
2023-01-08T07:33:11.502Z,6.43
2023-01-08T07:35:39.320Z,6.55
2023-01-08T07:38:07.179Z,5.65
2023-01-08T07:40:35.023Z,7.88
2023-01-08T07:43:06.681Z,4.90
2023-01-08T07:45:34.561Z,3.72
2023-01-08T07:48:02.337Z,5.00
2023-01-08T07:50:30.247Z,3.05
2023-01-08T07:52:59.343Z,4.45
2023-01-08T07:55:27.876Z,3.72
2023-01-08T07:57:56.028Z,4.95
2023-01-08T08:00:25.262Z,3.28
2023-01-08T08:02:53.874Z,3.50
2023-01-08T08:05:21.787Z,2.55
2023-01-08T08:07:49.529Z,1.67
2023-01-08T08:10:17.576Z,2.35
2023-01-08T08:12:46.129Z,1.63
2023-01-08T08:15:14.059Z,3.05
2023-01-08T08:17:45.899Z,1.48
2023-01-08T08:20:13.811Z,11.60
2023-01-08T08:22:41.747Z,2.35
2023-01-08T08:25:10.208Z,3.35
2023-01-08T08:27:38.264Z,2.38
2023-01-08T08:30:07.174Z,2.53
2023-01-08T08:32:35.366Z,1.77
2023-01-08T08:35:05.173Z,1.40
2023-01-08T08:37:33.058Z,1.75
2023-01-08T08:40:00.851Z,2.28
2023-01-08T08:42:28.714Z,2.20
2023-01-08T08:44:56.516Z,1.35
2023-01-08T08:47:24.350Z,4.15
2023-01-08T08:49:52.119Z,1.10
2023-01-08T08:52:21.523Z,4.25
2023-01-08T08:54:49.304Z,2.88
2023-01-08T08:57:17.224Z,2.80
2023-01-08T08:59:45.124Z,3.10
2023-01-08T09:02:13.335Z,3.47
2023-01-08T09:04:41.405Z,2.58
2023-01-08T09:07:09.298Z,2.90
2023-01-08T09:09:38.572Z,1.58
2023-01-08T09:12:08.282Z,3.50
2023-01-08T09:14:36.122Z,3.00
2023-01-08T09:17:03.918Z,1.67
2023-01-08T09:19:31.973Z,2.10
2023-01-08T09:21:59.782Z,3.03
2023-01-08T09:24:27.707Z,1.45
2023-01-08T09:26:56.786Z,2.25
2023-01-08T09:29:24.634Z,2.08
2023-01-08T09:31:55.682Z,2.17
2023-01-08T09:34:23.586Z,3.75
2023-01-08T09:36:52.275Z,3.55
2023-01-08T09:39:20.201Z,3.08
2023-01-08T09:41:49.007Z,1.73
2023-01-08T09:44:21.357Z,2.33
2023-01-08T09:49:26.348Z,2.85
2023-01-08T09:51:54.603Z,2.13
2023-01-08T09:54:25.102Z,2.17
2023-01-08T09:56:54.139Z,5.35
2023-01-08T09:59:23.448Z,4.80
2023-01-08T10:01:53.430Z,2.75
2023-01-08T10:04:23.870Z,2.22
2023-01-08T10:06:55.429Z,8.25
2023-01-08T11:16:49.503Z,3.60
2023-01-08T11:19:20.380Z,2.20
2023-01-08T11:21:56.748Z,1.85
2023-01-08T11:24:29.451Z,3.15
2023-01-08T11:27:05.766Z,2.35
2023-01-08T11:29:42.168Z,2.35
2023-01-08T11:32:30.211Z,2.03
2023-01-08T11:35:02.227Z,2.40
2023-01-08T11:37:34.647Z,2.05
2023-01-08T11:40:04.511Z,2.03
2023-01-08T11:42:53.083Z,1.60
2023-01-08T11:45:31.377Z,2.53
2023-01-08T11:48:18.249Z,1.90
2023-01-08T11:51:00.367Z,2.10
2023-01-08T11:53:38.553Z,1.88
2023-01-08T11:56:21.265Z,1.48
2023-01-08T11:59:07.065Z,1.73
2023-01-08T12:01:48.387Z,2.40
2023-01-08T12:04:33.706Z,1.75
2023-01-08T12:07:10.927Z,2.47
2023-01-08T12:09:43.630Z,3.40
2023-01-08T12:12:26.245Z,1.77
2023-01-08T12:15:06.535Z,3.10
2023-01-08T12:18:00.739Z,3.10
2023-01-08T12:20:37.780Z,1.88
2023-01-08T12:23:30.012Z,4.30
2023-01-08T12:26:20.803Z,2.43
2023-01-08T12:29:19.389Z,5.35
2023-01-08T12:32:14.408Z,3.75
2023-01-08T12:34:54.354Z,6.63
2023-01-08T12:37:27.547Z,4.00
2023-01-08T12:40:02.235Z,3.88
2023-01-08T12:42:33.215Z,3.60
2023-01-08T12:45:04.611Z,2.70
2023-01-08T12:47:38.202Z,3.30
2023-01-08T12:50:21.809Z,3.00
2023-01-08T12:52:59.845Z,3.05
2023-01-08T12:55:43.578Z,3.63
2023-01-08T12:58:22.475Z,1.98
2023-01-08T13:01:00.047Z,1.40
2023-01-08T13:03:30.879Z,2.47
2023-01-08T13:06:11.013Z,2.22
2023-01-08T13:08:41.223Z,1.70
2023-01-08T13:11:09.765Z,2.47
2023-01-08T13:13:41.680Z,5.18
2023-01-08T13:16:21.469Z,2.80
2023-01-08T13:18:55.021Z,3.83
2023-01-08T13:21:31.942Z,1.48
2023-01-08T13:24:06.375Z,2.15
2023-01-08T13:26:36.772Z,2.63
2023-01-08T13:29:23.581Z,1.00
2023-01-08T13:31:53.465Z,2.45
2023-01-08T13:34:34.530Z,1.65
2023-01-08T13:37:02.391Z,3.30
2023-01-08T13:39:36.157Z,2.88
2023-01-08T13:42:20.932Z,1.92
2023-01-08T13:44:50.977Z,0.70
2023-01-08T13:47:28.764Z,1.30
2023-01-08T13:49:57.904Z,0.70
2023-01-08T13:52:36.044Z,2.30
2023-01-08T13:55:06.570Z,2.95
2023-01-08T13:57:40.858Z,1.50
2023-01-08T14:00:18.917Z,0.80
2023-01-08T14:02:50.718Z,1.38
2023-01-08T14:05:28.286Z,3.00
2023-01-08T14:07:56.625Z,1.45
2023-01-08T14:10:26.365Z,1.10
2023-01-08T14:12:55.962Z,0.93
2023-01-08T14:15:26.766Z,2.05
2023-01-08T14:17:57.970Z,0.73
2023-01-08T14:20:31.933Z,1.15
2023-01-08T14:23:01.137Z,1.30
2023-01-08T14:25:30.293Z,0.98
2023-01-08T14:28:03.599Z,1.15
2023-01-08T14:30:32.123Z,2.00
2023-01-08T14:33:02.450Z,1.65
2023-01-08T14:35:34.603Z,1.40
2023-01-08T14:38:05.613Z,1.13
2023-01-08T14:40:38.346Z,0.60
2023-01-08T14:45:38.789Z,2.08
2023-01-08T14:48:14.851Z,2.15
2023-01-08T14:50:45.102Z,1.67
2023-01-08T14:53:21.722Z,2.20
2023-01-08T14:55:52.363Z,1.48
2023-01-08T14:58:25.489Z,0.75
2023-01-08T15:00:57.247Z,1.17
2023-01-08T15:03:33.022Z,1.13
2023-01-08T15:06:01.372Z,2.45
2023-01-08T15:08:35.160Z,1.08
2023-01-08T15:11:04.907Z,2.13
2023-01-08T15:13:35.103Z,2.90
2023-01-08T15:16:08.792Z,1.10
2023-01-08T15:18:44.505Z,0.88
2023-01-08T15:21:17.942Z,0.90
2023-01-08T15:23:49.786Z,1.83
2023-01-08T15:26:18.596Z,2.20
2023-01-08T15:28:50.921Z,2.35
2023-01-08T15:31:30.165Z,1.63
2023-01-08T15:34:01.235Z,1.17
2023-01-08T15:36:29.130Z,1.40
2023-01-08T15:38:57.062Z,1.67
2023-01-08T15:41:42.721Z,2.05
2023-01-08T15:44:13.383Z,0.90
2023-01-08T15:46:41.263Z,2.10
2023-01-08T15:49:10.658Z,2.28
2023-01-08T15:51:43.031Z,3.72
2023-01-08T15:54:12.695Z,0.95
2023-01-08T15:56:41.100Z,1.58
2023-01-08T15:59:09.056Z,3.75
2023-01-08T16:01:37.042Z,5.38
2023-01-08T16:04:05.250Z,1.58
2023-01-08T16:06:36.045Z,1.95
2023-01-08T16:09:04.370Z,1.52
2023-01-08T16:11:32.247Z,1.30
2023-01-08T16:14:00.118Z,1.05
2023-01-08T16:16:27.981Z,2.70
2023-01-08T16:18:55.908Z,2.95
2023-01-08T16:21:23.755Z,0.75
2023-01-08T16:23:53.623Z,1.63
2023-01-08T16:26:21.640Z,2.50
2023-01-08T16:28:49.440Z,1.20
2023-01-08T16:31:17.488Z,2.38
2023-01-08T16:33:45.466Z,2.05
2023-01-08T16:36:13.378Z,0.85
2023-01-08T16:38:41.212Z,1.88
2023-01-08T16:41:10.727Z,1.02
2023-01-08T16:44:03.965Z,2.15
2023-01-08T16:46:31.811Z,2.83
2023-01-08T16:48:59.709Z,2.17
2023-01-08T16:51:27.873Z,1.90
2023-01-08T16:53:55.886Z,1.73
2023-01-08T16:56:25.206Z,2.85
2023-01-08T16:58:53.050Z,1.42
2023-01-08T17:01:21.168Z,2.28
2023-01-08T17:03:49.087Z,2.95
2023-01-08T17:06:17.061Z,4.20
2023-01-08T17:08:44.985Z,7.28
2023-01-08T17:11:14.640Z,5.45
2023-01-08T17:13:44.630Z,3.55
2023-01-08T17:16:17.037Z,2.42
2023-01-08T17:18:45.469Z,1.48
2023-01-08T17:21:15.181Z,2.05
2023-01-08T17:23:43.144Z,1.45
2023-01-08T17:26:14.274Z,1.52
2023-01-08T17:28:42.288Z,3.10
2023-01-08T17:31:13.803Z,10.25
2023-01-08T17:33:42.085Z,6.40
2023-01-08T17:36:13.311Z,4.03
2023-01-08T17:38:42.836Z,7.88
2023-01-08T17:41:31.410Z,10.02
2023-01-08T17:43:59.349Z,6.85
2023-01-08T17:46:28.887Z,9.55
2023-01-08T17:48:56.767Z,6.53
2023-01-08T17:51:24.572Z,2.85
2023-01-08T17:53:52.475Z,3.80
2023-01-08T17:56:20.284Z,3.92
2023-01-08T17:58:49.997Z,5.07
2023-01-08T18:01:19.127Z,2.65
2023-01-08T18:03:48.522Z,2.03
2023-01-08T18:06:16.558Z,1.88
2023-01-08T18:08:44.446Z,2.90
2023-01-08T18:11:12.502Z,4.10
2023-01-08T18:13:40.578Z,3.17
2023-01-08T18:16:10.753Z,3.17
2023-01-08T18:18:39.702Z,2.33
2023-01-08T18:21:09.169Z,2.50
2023-01-08T18:24:02.689Z,2.63
2023-01-08T18:26:30.582Z,3.72
2023-01-08T18:28:58.347Z,3.70
2023-01-08T18:31:26.273Z,3.55
2023-01-08T18:33:54.159Z,3.65
2023-01-08T18:36:23.668Z,2.65
2023-01-08T18:38:51.756Z,7.45
2023-01-08T18:41:39.223Z,6.63
2023-01-08T18:44:08.940Z,7.95
2023-01-08T18:46:37.566Z,7.60
2023-01-08T18:49:05.635Z,7.10
2023-01-08T18:51:34.910Z,5.38
2023-01-08T18:54:04.274Z,5.47
2023-01-08T18:56:34.524Z,5.88
2023-01-08T18:59:02.683Z,4.43
2023-01-08T19:01:30.693Z,7.32
2023-01-08T19:03:58.638Z,6.90
2023-01-08T19:06:26.682Z,4.68
2023-01-08T19:09:21.269Z,5.95
2023-01-08T19:11:49.295Z,4.32
2023-01-08T19:14:17.145Z,7.45
2023-01-08T19:16:51.119Z,7.03
2023-01-08T19:19:19.683Z,5.70
2023-01-08T19:21:47.539Z,6.07
2023-01-08T19:24:15.417Z,4.63
2023-01-08T19:26:44.643Z,8.40
2023-01-08T19:29:12.629Z,3.67
2023-01-08T19:31:40.531Z,3.05
2023-01-08T19:34:08.387Z,3.65
2023-01-08T19:36:36.342Z,2.50
2023-01-08T19:39:05.310Z,5.32
2023-01-08T19:41:50.503Z,4.50
2023-01-08T19:44:19.809Z,5.43
2023-01-08T19:46:47.653Z,6.35
2023-01-08T19:49:15.527Z,8.55
2023-01-08T19:51:43.368Z,6.10
2023-01-08T19:54:12.656Z,4.97
2023-01-08T19:56:40.860Z,5.95
2023-01-08T19:59:08.646Z,6.47
2023-01-08T20:01:38.954Z,2.97
2023-01-08T20:04:07.007Z,2.28
2023-01-08T20:06:35.001Z,2.13
2023-01-08T20:09:03.490Z,3.47
2023-01-08T20:11:31.446Z,4.72
2023-01-08T20:14:00.484Z,3.97
2023-01-08T20:16:29.723Z,3.38
2023-01-08T20:19:02.026Z,3.72
2023-01-08T20:21:30.145Z,4.13
2023-01-08T20:24:00.557Z,2.92
2023-01-08T20:26:53.972Z,5.15
2023-01-08T20:29:21.799Z,4.70
2023-01-08T20:31:56.790Z,5.63
2023-01-08T20:34:26.389Z,5.18
2023-01-08T20:36:54.241Z,5.38
2023-01-08T20:39:22.103Z,3.22
2023-01-08T20:41:55.592Z,1.60
2023-01-08T20:44:32.158Z,5.80
2023-01-08T20:47:00.373Z,1.95
2023-01-08T20:49:29.841Z,1.52
2023-01-08T20:51:59.632Z,1.95
2023-01-08T20:54:28.782Z,2.35
2023-01-08T20:56:57.066Z,2.88
2023-01-08T20:59:25.042Z,1.48
2023-01-08T21:01:53.427Z,2.30
2023-01-08T21:04:21.324Z,1.63
2023-01-08T21:06:50.721Z,3.22
2023-01-08T21:09:18.573Z,2.65
2023-01-08T21:11:46.575Z,2.55
2023-01-08T21:14:14.725Z,2.17
2023-01-08T21:16:42.640Z,1.45
2023-01-08T21:19:10.899Z,1.33
2023-01-08T21:21:40.683Z,1.70
2023-01-08T21:24:13.355Z,2.85
2023-01-08T21:26:41.582Z,1.33
2023-01-08T21:29:09.986Z,1.90
2023-01-08T21:31:38.890Z,4.07
2023-01-08T21:34:08.616Z,1.77
2023-01-08T21:36:37.006Z,3.47
2023-01-08T21:39:05.025Z,1.65
2023-01-08T21:41:52.068Z,1.42
2023-01-08T21:44:39.371Z,1.90
2023-01-08T21:47:09.745Z,1.55
2023-01-08T21:49:37.867Z,2.42
2023-01-08T21:52:24.395Z,2.70
2023-01-08T21:54:52.894Z,1.98
2023-01-08T21:57:22.159Z,5.22
2023-01-08T21:59:50.720Z,1.83
2023-01-08T22:02:20.042Z,1.85
2023-01-08T22:04:48.344Z,1.88
2023-01-08T22:07:17.233Z,1.73
2023-01-08T22:09:45.381Z,3.50
2023-01-08T22:12:14.138Z,1.92
2023-01-08T22:14:43.359Z,1.35
2023-01-08T22:17:11.549Z,1.77
2023-01-08T22:19:40.306Z,8.20
2023-01-08T22:22:11.012Z,1.63
2023-01-08T22:24:39.557Z,1.33
2023-01-08T22:27:08.130Z,2.25
2023-01-08T22:29:36.266Z,1.88
2023-01-08T22:32:06.267Z,3.60
2023-01-08T22:34:35.441Z,2.08
2023-01-08T22:37:03.320Z,3.28
2023-01-08T22:39:31.228Z,1.95
2023-01-08T22:41:59.267Z,1.77
2023-01-08T22:44:27.036Z,3.20
2023-01-08T22:46:54.952Z,3.50
2023-01-08T22:49:24.128Z,3.00
2023-01-08T22:51:52.161Z,1.45
2023-01-08T22:54:19.965Z,3.17
2023-01-08T22:56:47.763Z,1.38
2023-01-08T22:59:15.686Z,2.97
2023-01-08T23:01:43.507Z,3.13
2023-01-08T23:06:36.407Z,1.92
2023-01-08T23:09:04.581Z,2.97
2023-01-08T23:11:32.359Z,1.77
2023-01-08T23:14:01.275Z,1.45
2023-01-08T23:16:29.162Z,2.10
2023-01-08T23:18:57.591Z,1.48
2023-01-08T23:21:27.254Z,1.30
2023-01-08T23:23:56.721Z,2.20
2023-01-08T23:26:26.901Z,1.48
2023-01-08T23:28:55.911Z,2.03
2023-01-08T23:31:27.205Z,1.75
2023-01-08T23:33:55.461Z,2.80
2023-01-08T23:36:23.615Z,2.88
2023-01-08T23:38:54.290Z,5.93
2023-01-08T23:41:31.709Z,11.10
2023-01-08T23:44:02.065Z,1.50
2023-01-08T23:46:30.071Z,1.35
2023-01-08T23:48:58.320Z,1.35
2023-01-08T23:51:27.113Z,1.42
2023-01-08T23:54:20.444Z,1.05
2023-01-08T23:56:50.341Z,1.15
2023-01-08T23:59:18.139Z,2.58
